createdAt,value
2017-10-07T00:00:20.492Z,63.2
2017-10-07T00:01:22.098Z,62.9
2017-10-07T00:02:23.710Z,62.6
2017-10-07T00:03:25.320Z,62.7
2017-10-07T00:04:26.939Z,63.4
2017-10-07T00:05:28.551Z,63.3
2017-10-07T00:06:30.165Z,62.7
2017-10-07T00:07:31.770Z,62.9
2017-10-07T00:08:33.383Z,62.5
2017-10-07T00:09:34.992Z,62.6
2017-10-07T00:10:36.606Z,62.6
2017-10-07T00:11:38.219Z,62.7
2017-10-07T00:12:39.831Z,62.1
2017-10-07T00:13:41.448Z,62.5
2017-10-07T00:14:43.050Z,63.2
2017-10-07T00:15:44.657Z,62.9
2017-10-07T00:16:46.270Z,61.8
2017-10-07T00:17:47.878Z,61.7
2017-10-07T00:18:49.495Z,62.0
2017-10-07T00:19:51.106Z,61.8
2017-10-07T00:20:52.723Z,62.2
2017-10-07T00:21:54.328Z,61.5
2017-10-07T00:22:55.935Z,61.8
2017-10-07T00:23:57.549Z,62.2
2017-10-07T00:24:59.168Z,62.3
2017-10-07T00:26:00.775Z,62.1
2017-10-07T00:27:02.385Z,61.6
2017-10-07T00:28:04.001Z,61.5
2017-10-07T00:29:05.609Z,61.3
2017-10-07T00:30:07.230Z,61.6
2017-10-07T00:31:08.840Z,61.7
2017-10-07T00:32:10.453Z,62.2
2017-10-07T00:33:12.076Z,61.6
2017-10-07T00:34:13.679Z,61.2
2017-10-07T00:35:15.292Z,61.5
2017-10-07T00:36:16.904Z,62.9
2017-10-07T00:37:18.512Z,62.1
2017-10-07T00:38:20.125Z,61.9
2017-10-07T00:39:21.739Z,61.4
2017-10-07T00:40:23.347Z,61.8
2017-10-07T00:41:24.959Z,61.9
2017-10-07T00:42:26.577Z,61.5
2017-10-07T00:43:28.188Z,61.0
2017-10-07T00:44:29.794Z,61.7
2017-10-07T00:45:31.409Z,61.7
2017-10-07T00:46:33.021Z,61.1
2017-10-07T00:47:34.634Z,61.4
2017-10-07T00:48:36.243Z,61.4
2017-10-07T00:49:37.857Z,61.2
2017-10-07T00:50:39.468Z,61.4
2017-10-07T00:51:41.082Z,60.9
2017-10-07T00:52:42.688Z,61.2
2017-10-07T00:53:44.307Z,61.3
2017-10-07T00:54:45.913Z,61.3
2017-10-07T00:55:47.527Z,61.2
2017-10-07T00:56:49.142Z,61.3
2017-10-07T00:57:50.752Z,61.2
2017-10-07T00:58:52.358Z,61.5
2017-10-07T00:59:53.966Z,61.5
2017-10-07T01:00:55.587Z,61.3
2017-10-07T01:01:57.203Z,61.2
2017-10-07T01:02:58.813Z,61.2
2017-10-07T01:04:00.430Z,61.5
2017-10-07T01:05:02.038Z,61.2
2017-10-07T01:06:03.650Z,61.7
2017-10-07T01:07:05.258Z,61.5
2017-10-07T01:08:06.872Z,62.0
2017-10-07T01:09:08.474Z,61.5
2017-10-07T01:10:10.080Z,61.6
2017-10-07T01:11:11.686Z,61.5
2017-10-07T01:12:13.291Z,61.5
2017-10-07T01:13:14.895Z,61.5
2017-10-07T01:14:16.503Z,61.6
2017-10-07T01:15:18.108Z,61.2
2017-10-07T01:16:19.709Z,62.0
2017-10-07T01:17:21.324Z,62.3
2017-10-07T01:18:22.925Z,61.7
2017-10-07T01:19:24.535Z,61.5
2017-10-07T01:20:26.144Z,61.5
2017-10-07T01:21:27.747Z,61.8
2017-10-07T01:22:29.350Z,61.8
2017-10-07T01:23:30.965Z,61.8
2017-10-07T01:24:32.573Z,61.7
2017-10-07T01:25:34.177Z,61.5
2017-10-07T01:26:35.787Z,61.5
2017-10-07T01:27:37.394Z,61.1
2017-10-07T01:28:39.001Z,62.2
2017-10-07T01:29:40.606Z,62.4
2017-10-07T01:30:42.211Z,62.7
2017-10-07T01:31:43.823Z,62.4
2017-10-07T01:32:45.428Z,61.9
2017-10-07T01:33:47.030Z,62.1
2017-10-07T01:34:48.641Z,62.7
2017-10-07T01:35:50.243Z,62.0
2017-10-07T01:36:51.848Z,62.0
2017-10-07T01:37:53.462Z,62.4
2017-10-07T01:38:55.069Z,62.0
2017-10-07T01:39:56.675Z,61.9
2017-10-07T01:40:58.278Z,62.3
2017-10-07T01:41:59.889Z,61.5
2017-10-07T01:43:01.492Z,61.9
2017-10-07T01:44:03.101Z,61.7
2017-10-07T01:45:04.702Z,61.7
2017-10-07T01:46:06.311Z,61.6
2017-10-07T01:47:07.918Z,61.5
2017-10-07T01:48:09.521Z,62.0
2017-10-07T01:49:11.130Z,62.0
2017-10-07T01:50:12.738Z,61.7
2017-10-07T01:51:14.345Z,61.9
2017-10-07T01:52:15.950Z,61.9
2017-10-07T01:53:17.561Z,62.0
2017-10-07T01:54:19.167Z,61.8
2017-10-07T01:55:20.776Z,62.3
2017-10-07T01:56:22.378Z,61.6
2017-10-07T01:57:23.988Z,61.9
2017-10-07T01:58:25.588Z,62.7
2017-10-07T01:59:27.206Z,61.7
2017-10-07T02:00:28.803Z,61.8
2017-10-07T02:01:30.413Z,62.3
2017-10-07T02:02:32.020Z,62.3
2017-10-07T02:03:33.626Z,62.8
2017-10-07T02:04:35.234Z,62.0
2017-10-07T02:05:36.842Z,62.5
2017-10-07T02:06:38.444Z,62.4
2017-10-07T02:07:40.056Z,61.9
2017-10-07T02:08:41.661Z,62.1
2017-10-07T02:09:43.266Z,61.9
2017-10-07T02:10:44.872Z,62.3
2017-10-07T02:11:46.483Z,62.3
2017-10-07T02:12:48.085Z,62.4
2017-10-07T02:13:49.692Z,62.6
2017-10-07T02:14:51.302Z,61.7
2017-10-07T02:15:52.907Z,61.6
2017-10-07T02:16:54.515Z,61.2
2017-10-07T02:17:56.120Z,61.1
2017-10-07T02:18:57.723Z,61.8
2017-10-07T02:19:59.326Z,61.5
2017-10-07T02:21:00.934Z,61.0
2017-10-07T02:22:02.548Z,61.3
2017-10-07T02:23:04.157Z,61.2
2017-10-07T02:24:05.763Z,60.9
2017-10-07T02:25:07.364Z,61.1
2017-10-07T02:26:08.967Z,60.7
2017-10-07T02:27:10.578Z,61.2
2017-10-07T02:28:12.187Z,61.0
2017-10-07T02:29:13.791Z,61.3
2017-10-07T02:30:15.396Z,61.2
2017-10-07T02:31:17.004Z,61.2
2017-10-07T02:32:18.612Z,61.5
2017-10-07T02:33:20.219Z,61.2
2017-10-07T02:34:21.825Z,60.9
2017-10-07T02:35:23.429Z,61.2
2017-10-07T02:36:25.035Z,60.9
2017-10-07T02:37:26.648Z,61.1
2017-10-07T02:38:28.249Z,60.7
2017-10-07T02:39:29.853Z,60.8
2017-10-07T02:40:31.456Z,60.7
2017-10-07T02:41:33.066Z,60.7
2017-10-07T02:42:34.669Z,61.3
2017-10-07T02:43:36.279Z,61.4
2017-10-07T02:44:37.886Z,61.2
2017-10-07T02:45:39.493Z,61.6
2017-10-07T02:46:41.093Z,62.5
2017-10-07T02:47:42.703Z,61.3
2017-10-07T02:48:44.312Z,61.5
2017-10-07T02:49:45.912Z,61.2
2017-10-07T02:50:47.519Z,61.5
2017-10-07T02:51:49.131Z,61.3
2017-10-07T02:52:50.737Z,62.1
2017-10-07T02:53:52.339Z,62.3
2017-10-07T02:54:53.946Z,61.6
2017-10-07T02:55:55.553Z,61.4
2017-10-07T02:56:57.156Z,62.2
2017-10-07T02:57:58.767Z,62.7
2017-10-07T02:59:00.371Z,62.3
2017-10-07T03:00:01.978Z,61.8
2017-10-07T03:01:03.581Z,62.5
2017-10-07T03:02:05.191Z,63.0
2017-10-07T03:03:06.794Z,63.0
2017-10-07T03:04:08.405Z,62.8
2017-10-07T03:05:10.011Z,63.0
2017-10-07T03:06:11.621Z,63.0
2017-10-07T03:07:13.222Z,63.0
2017-10-07T03:08:14.829Z,62.5
2017-10-07T03:09:16.431Z,62.4
2017-10-07T03:10:18.044Z,62.6
2017-10-07T03:11:19.649Z,62.8
2017-10-07T03:12:21.256Z,62.7
2017-10-07T03:13:22.864Z,62.9
2017-10-07T03:14:24.467Z,62.3
2017-10-07T03:15:26.078Z,62.5
2017-10-07T03:16:27.681Z,62.2
2017-10-07T03:17:29.290Z,62.2
2017-10-07T03:18:30.894Z,62.6
2017-10-07T03:19:32.505Z,61.9
2017-10-07T03:20:34.115Z,61.7
2017-10-07T03:21:35.720Z,61.4
2017-10-07T03:22:37.320Z,61.3
2017-10-07T03:23:38.934Z,61.9
2017-10-07T03:24:40.536Z,62.1
2017-10-07T03:25:42.145Z,62.4
2017-10-07T03:26:43.749Z,62.5
2017-10-07T03:27:45.360Z,62.6
2017-10-07T03:28:46.961Z,62.5
2017-10-07T03:29:48.571Z,62.4
2017-10-07T03:30:50.173Z,62.7
2017-10-07T03:31:51.779Z,63.0
2017-10-07T03:32:53.391Z,63.4
2017-10-07T03:33:55.000Z,62.9
2017-10-07T03:34:56.602Z,63.9
2017-10-07T03:35:58.208Z,64.0
2017-10-07T03:36:59.817Z,63.7
2017-10-07T03:38:01.424Z,63.4
2017-10-07T03:39:03.026Z,63.8
2017-10-07T03:40:04.633Z,63.9
2017-10-07T03:41:06.244Z,63.5
2017-10-07T03:42:07.856Z,62.9
2017-10-07T03:43:09.456Z,63.0
2017-10-07T03:44:11.056Z,62.7
2017-10-07T03:45:12.666Z,62.7
2017-10-07T03:46:14.269Z,62.4
2017-10-07T03:47:15.877Z,62.8
2017-10-07T03:48:17.484Z,63.4
2017-10-07T03:49:19.090Z,62.6
2017-10-07T03:50:20.691Z,62.4
2017-10-07T03:51:22.296Z,63.2
2017-10-07T03:52:23.903Z,64.1
2017-10-07T03:53:25.504Z,64.0
2017-10-07T03:54:27.107Z,64.7
2017-10-07T03:55:28.716Z,64.2
2017-10-07T03:56:30.326Z,64.2
2017-10-07T03:57:31.926Z,64.2
2017-10-07T03:58:33.528Z,64.8
2017-10-07T03:59:35.136Z,64.8
2017-10-07T04:00:36.740Z,64.8
2017-10-07T04:01:38.344Z,63.9
2017-10-07T04:02:39.953Z,64.7
2017-10-07T04:03:41.556Z,64.9
2017-10-07T04:04:43.162Z,65.2
2017-10-07T04:05:44.766Z,65.3
2017-10-07T04:06:46.372Z,66.0
2017-10-07T04:07:47.972Z,67.3
2017-10-07T04:08:49.581Z,66.9
2017-10-07T04:09:51.185Z,66.9
2017-10-07T04:10:52.792Z,68.0
2017-10-07T04:11:54.399Z,67.4
2017-10-07T04:12:56.008Z,67.4
2017-10-07T04:13:57.613Z,67.6
2017-10-07T04:14:59.215Z,67.8
2017-10-07T04:16:00.824Z,69.0
2017-10-07T04:17:02.427Z,68.6
2017-10-07T04:18:04.037Z,69.1
2017-10-07T04:19:05.637Z,68.1
2017-10-07T04:20:07.245Z,70.9
2017-10-07T04:21:08.852Z,70.7
2017-10-07T04:22:10.453Z,71.1
2017-10-07T04:23:12.058Z,71.1
2017-10-07T04:24:13.670Z,71.4
2017-10-07T04:25:15.279Z,71.8
2017-10-07T04:26:16.881Z,74.1
2017-10-07T04:27:18.489Z,73.0
2017-10-07T04:28:20.113Z,72.4
2017-10-07T04:29:21.698Z,73.0
2017-10-07T04:30:23.303Z,72.8
2017-10-07T04:31:24.912Z,72.4
2017-10-07T04:32:26.516Z,72.7
2017-10-07T04:33:28.125Z,72.9
2017-10-07T04:34:29.724Z,71.9
2017-10-07T04:35:31.330Z,72.2
2017-10-07T04:36:32.938Z,70.0
2017-10-07T04:37:34.547Z,70.3
2017-10-07T04:38:36.152Z,70.2
2017-10-07T04:39:37.759Z,69.8
2017-10-07T04:40:39.368Z,72.4
2017-10-07T04:41:40.972Z,73.9
2017-10-07T04:42:42.573Z,72.4
2017-10-07T04:43:44.182Z,71.7
2017-10-07T04:44:45.791Z,71.2
2017-10-07T04:45:47.389Z,69.7
2017-10-07T04:46:49.002Z,70.5
2017-10-07T04:47:50.683Z,70.7
2017-10-07T04:48:52.368Z,69.7
2017-10-07T04:49:54.137Z,73.5
2017-10-07T04:50:55.752Z,72.2
2017-10-07T04:51:57.356Z,74.3
2017-10-07T04:52:58.965Z,72.9
2017-10-07T04:54:00.572Z,76.1
2017-10-07T04:55:02.180Z,76.0
2017-10-07T04:56:03.782Z,77.5
2017-10-07T04:57:05.393Z,77.1
2017-10-07T04:58:06.996Z,77.2
2017-10-07T04:59:09.872Z,76.3
2017-10-07T05:00:11.474Z,78.4
2017-10-07T05:01:13.115Z,79.1
2017-10-07T05:02:14.694Z,80.5
2017-10-07T05:03:16.297Z,80.2
2017-10-07T05:04:17.899Z,82.0
2017-10-07T05:05:19.512Z,81.4
2017-10-07T05:06:21.121Z,81.5
2017-10-07T05:07:22.722Z,80.7
2017-10-07T05:08:24.330Z,81.5
2017-10-07T05:09:25.937Z,80.3
2017-10-07T05:10:27.543Z,80.7
2017-10-07T05:11:29.144Z,83.3
2017-10-07T05:12:30.750Z,81.6
2017-10-07T05:13:32.372Z,81.2
2017-10-07T05:14:34.012Z,83.3
2017-10-07T05:15:35.743Z,81.7
2017-10-07T05:16:37.391Z,83.8
2017-10-07T05:17:39.752Z,81.7
2017-10-07T05:18:41.839Z,82.3
2017-10-07T05:19:43.466Z,82.2
2017-10-07T05:20:45.073Z,82.3
2017-10-07T05:21:46.690Z,83.3
2017-10-07T05:22:48.301Z,82.3
2017-10-07T05:23:49.919Z,81.3
2017-10-07T05:24:51.581Z,82.0
2017-10-07T05:25:53.196Z,81.8
2017-10-07T05:26:54.805Z,83.7
2017-10-07T05:27:56.415Z,82.9
2017-10-07T05:28:58.024Z,81.2
2017-10-07T05:29:59.630Z,82.6
2017-10-07T05:31:01.236Z,80.3
2017-10-07T05:32:02.845Z,82.5
2017-10-07T05:33:04.456Z,81.9
2017-10-07T05:34:06.059Z,82.5
2017-10-07T05:35:07.671Z,82.9
2017-10-07T05:36:09.281Z,82.5
2017-10-07T05:37:10.906Z,82.7
2017-10-07T05:38:12.512Z,82.3
2017-10-07T05:39:14.124Z,81.4
2017-10-07T05:40:15.725Z,83.8
2017-10-07T05:41:17.333Z,82.3
2017-10-07T05:42:18.947Z,81.1
2017-10-07T05:43:20.553Z,84.7
2017-10-07T05:44:22.170Z,81.7
2017-10-07T05:45:23.772Z,84.9
2017-10-07T05:46:25.383Z,85.0
2017-10-07T05:47:27.039Z,83.0
2017-10-07T05:48:28.641Z,84.9
2017-10-07T05:49:30.248Z,87.0
2017-10-07T05:50:31.856Z,85.6
2017-10-07T05:51:33.545Z,88.1
2017-10-07T05:52:35.205Z,85.7
2017-10-07T05:53:36.811Z,87.8
2017-10-07T05:54:38.419Z,87.4
2017-10-07T05:55:40.050Z,87.2
2017-10-07T05:56:41.659Z,88.0
2017-10-07T05:57:43.275Z,86.8
2017-10-07T05:58:44.881Z,88.2
2017-10-07T05:59:46.493Z,87.0
2017-10-07T06:00:48.100Z,86.6
2017-10-07T06:01:49.710Z,85.4
2017-10-07T06:02:51.317Z,85.4
2017-10-07T06:03:52.948Z,87.0
2017-10-07T06:04:54.539Z,85.3
2017-10-07T06:05:56.188Z,85.4
2017-10-07T06:06:57.795Z,84.6
2017-10-07T06:07:59.405Z,87.2
2017-10-07T06:09:01.015Z,87.0
2017-10-07T06:10:02.630Z,84.6
2017-10-07T06:11:04.241Z,86.2
2017-10-07T06:12:05.846Z,85.0
2017-10-07T06:13:07.456Z,86.0
2017-10-07T06:14:09.065Z,88.0
2017-10-07T06:15:10.676Z,86.3
2017-10-07T06:16:12.288Z,87.4
2017-10-07T06:17:13.893Z,87.0
2017-10-07T06:18:15.501Z,87.1
2017-10-07T06:19:17.115Z,86.0
2017-10-07T06:20:18.760Z,85.6
2017-10-07T06:21:20.351Z,87.0
2017-10-07T06:22:21.955Z,88.6
2017-10-07T06:23:23.581Z,88.2
2017-10-07T06:24:25.198Z,85.7
2017-10-07T06:25:26.808Z,87.5
2017-10-07T06:26:28.419Z,86.2
2017-10-07T06:27:30.030Z,87.5
2017-10-07T06:28:31.642Z,87.0
2017-10-07T06:29:33.245Z,86.8
2017-10-07T06:30:34.860Z,88.3
2017-10-07T06:31:36.469Z,88.2
2017-10-07T06:32:38.078Z,87.9
2017-10-07T06:33:39.693Z,87.4
2017-10-07T06:34:41.308Z,86.3
2017-10-07T06:35:42.915Z,89.3
2017-10-07T06:36:44.524Z,89.6
2017-10-07T06:37:46.139Z,87.5
2017-10-07T06:38:47.753Z,88.8
2017-10-07T06:39:49.367Z,86.1
2017-10-07T06:40:51.107Z,88.5
2017-10-07T06:41:52.719Z,90.0
2017-10-07T06:42:54.329Z,88.7
2017-10-07T06:43:55.942Z,90.8
2017-10-07T06:44:57.548Z,89.9
2017-10-07T06:45:59.163Z,89.2
2017-10-07T06:47:00.770Z,91.7
2017-10-07T06:48:02.391Z,90.6
2017-10-07T06:49:04.000Z,92.6
2017-10-07T06:50:05.634Z,90.4
2017-10-07T06:51:07.228Z,91.8
2017-10-07T06:52:08.845Z,90.0
2017-10-07T06:53:10.453Z,91.6
2017-10-07T06:54:12.069Z,91.1
2017-10-07T06:55:13.676Z,92.1
2017-10-07T06:56:15.290Z,91.9
2017-10-07T06:57:16.903Z,90.5
2017-10-07T06:58:18.512Z,92.6
2017-10-07T06:59:20.128Z,91.5
2017-10-07T07:00:21.735Z,92.2
2017-10-07T07:01:23.346Z,92.6
2017-10-07T07:02:24.956Z,92.4
2017-10-07T07:03:26.575Z,92.0
2017-10-07T07:04:28.184Z,92.3
2017-10-07T07:05:29.798Z,92.7
2017-10-07T07:06:31.534Z,92.4
2017-10-07T07:07:33.146Z,94.5
2017-10-07T07:08:34.755Z,92.7
2017-10-07T07:09:36.371Z,93.5
2017-10-07T07:10:37.981Z,94.4
2017-10-07T07:11:39.615Z,93.8
2017-10-07T07:12:41.212Z,92.5
2017-10-07T07:13:42.820Z,94.4
2017-10-07T07:14:44.436Z,91.6
2017-10-07T07:15:46.047Z,92.9
2017-10-07T07:16:47.663Z,92.3
2017-10-07T07:17:49.279Z,95.2
2017-10-07T07:18:50.892Z,92.8
2017-10-07T07:19:52.500Z,94.6
2017-10-07T07:20:54.116Z,92.6
2017-10-07T07:21:55.731Z,94.1
2017-10-07T07:22:57.341Z,94.1
2017-10-07T07:23:59.154Z,93.6
2017-10-07T07:25:00.736Z,94.5
2017-10-07T07:26:02.347Z,94.6
2017-10-07T07:27:03.956Z,93.5
2017-10-07T07:28:05.567Z,94.0
2017-10-07T07:29:07.183Z,93.6
2017-10-07T07:30:08.798Z,93.6
2017-10-07T07:31:10.413Z,94.3
2017-10-07T07:32:12.028Z,93.0
2017-10-07T07:33:13.642Z,92.4
2017-10-07T07:34:15.254Z,92.6
2017-10-07T07:35:16.871Z,93.6
2017-10-07T07:36:18.486Z,92.6
2017-10-07T07:37:20.104Z,92.9
2017-10-07T07:38:21.708Z,92.5
2017-10-07T07:39:23.324Z,92.3
2017-10-07T07:40:24.942Z,95.3
2017-10-07T07:41:26.547Z,94.3
2017-10-07T07:42:28.161Z,92.0
2017-10-07T07:43:29.775Z,93.7
2017-10-07T07:44:31.384Z,93.7
2017-10-07T07:45:33.583Z,95.1
2017-10-07T07:46:35.204Z,94.0
2017-10-07T07:47:36.813Z,92.5
2017-10-07T07:48:38.435Z,94.9
2017-10-07T07:49:40.052Z,94.3
2017-10-07T07:50:41.665Z,94.4
2017-10-07T07:51:43.381Z,94.6
2017-10-07T07:52:45.056Z,94.4
2017-10-07T07:53:46.966Z,95.2
2017-10-07T07:54:48.666Z,93.8
2017-10-07T07:55:50.288Z,94.1
2017-10-07T07:56:51.904Z,95.0
2017-10-07T07:57:53.514Z,95.7
2017-10-07T07:58:55.156Z,92.9
2017-10-07T07:59:56.767Z,94.3
2017-10-07T08:00:58.404Z,94.4
2017-10-07T08:02:00.020Z,95.5
2017-10-07T08:03:01.632Z,94.9
2017-10-07T08:04:03.240Z,94.5
2017-10-07T08:05:04.852Z,94.4
2017-10-07T08:06:06.470Z,94.4
2017-10-07T08:07:08.085Z,95.6
2017-10-07T08:08:09.697Z,94.8
2017-10-07T08:09:11.307Z,95.2
2017-10-07T08:10:12.927Z,95.9
2017-10-07T08:11:14.537Z,95.4
2017-10-07T08:12:16.155Z,94.8
2017-10-07T08:13:17.764Z,95.5
2017-10-07T08:14:19.384Z,95.4
2017-10-07T08:15:21.723Z,94.4
2017-10-07T08:16:23.339Z,95.4
2017-10-07T08:17:25.549Z,94.2
2017-10-07T08:18:27.025Z,95.3
2017-10-07T08:19:28.642Z,94.7
2017-10-07T08:20:30.251Z,95.5
2017-10-07T08:21:31.868Z,95.7
2017-10-07T08:22:33.480Z,95.6
2017-10-07T08:23:35.099Z,94.7
2017-10-07T08:24:36.707Z,95.7
2017-10-07T08:25:38.317Z,94.7
2017-10-07T08:26:39.934Z,95.7
2017-10-07T08:27:41.550Z,95.3
2017-10-07T08:28:43.162Z,93.2
2017-10-07T08:29:44.779Z,94.7
2017-10-07T08:30:46.388Z,93.9
2017-10-07T08:31:48.000Z,94.2
2017-10-07T08:32:49.613Z,95.9
2017-10-07T08:33:51.225Z,93.9
2017-10-07T08:34:52.843Z,95.2
2017-10-07T08:35:54.458Z,95.4
2017-10-07T08:36:56.069Z,95.8
2017-10-07T08:37:57.680Z,94.3
2017-10-07T08:38:59.295Z,93.8
2017-10-07T08:40:00.910Z,95.7
2017-10-07T08:41:02.915Z,95.2
2017-10-07T08:42:04.535Z,95.2
2017-10-07T08:43:06.143Z,93.8
2017-10-07T08:44:07.756Z,95.7
2017-10-07T08:45:09.371Z,93.4
2017-10-07T08:46:10.985Z,95.3
2017-10-07T08:47:12.595Z,94.9
2017-10-07T08:48:14.208Z,94.3
2017-10-07T08:49:15.825Z,94.7
2017-10-07T08:50:17.440Z,94.6
2017-10-07T08:51:19.051Z,94.5
2017-10-07T08:52:20.663Z,94.0
2017-10-07T08:53:22.279Z,95.2
2017-10-07T08:54:23.896Z,93.6
2017-10-07T08:55:25.504Z,95.2
2017-10-07T08:56:28.092Z,94.9
2017-10-07T08:57:29.709Z,94.7
2017-10-07T08:58:31.325Z,94.7
2017-10-07T08:59:32.932Z,92.9
2017-10-07T09:00:34.549Z,95.6
2017-10-07T09:01:36.159Z,95.2
2017-10-07T09:02:37.773Z,93.4
2017-10-07T09:03:39.386Z,95.7
2017-10-07T09:04:41.013Z,94.6
2017-10-07T09:05:42.625Z,94.0
2017-10-07T09:06:44.239Z,95.9
2017-10-07T09:07:45.848Z,94.6
2017-10-07T09:08:47.463Z,92.4
2017-10-07T09:09:49.075Z,93.5
2017-10-07T09:10:50.695Z,92.5
2017-10-07T09:11:52.305Z,91.1
2017-10-07T09:12:53.922Z,95.3
2017-10-07T09:13:55.531Z,90.6
2017-10-07T09:14:57.143Z,94.4
2017-10-07T09:15:58.764Z,93.1
2017-10-07T09:17:00.371Z,92.7
2017-10-07T09:18:02.003Z,91.2
2017-10-07T09:19:03.623Z,91.6
2017-10-07T09:20:05.249Z,90.7
2017-10-07T09:21:06.858Z,93.0
2017-10-07T09:22:08.470Z,92.6
2017-10-07T09:23:10.079Z,92.7
2017-10-07T09:24:11.696Z,91.4
2017-10-07T09:25:13.308Z,93.8
2017-10-07T09:26:14.927Z,92.1
2017-10-07T09:27:16.538Z,91.4
2017-10-07T09:28:18.153Z,92.4
2017-10-07T09:29:19.762Z,94.0
2017-10-07T09:30:21.378Z,92.3
2017-10-07T09:31:22.987Z,94.7
2017-10-07T09:32:24.606Z,92.7
2017-10-07T09:33:26.215Z,93.8
2017-10-07T09:34:27.834Z,93.5
2017-10-07T09:35:29.441Z,93.2
2017-10-07T09:36:31.058Z,93.5
2017-10-07T09:37:32.667Z,94.2
2017-10-07T09:38:34.285Z,93.8
2017-10-07T09:39:35.895Z,92.1
2017-10-07T09:40:37.506Z,93.1
2017-10-07T09:41:39.119Z,94.6
2017-10-07T09:42:40.732Z,94.1
2017-10-07T09:43:42.347Z,93.2
2017-10-07T09:44:43.958Z,93.3
2017-10-07T09:45:45.572Z,93.5
2017-10-07T09:46:47.188Z,93.5
2017-10-07T09:47:48.805Z,94.0
2017-10-07T09:48:50.415Z,92.3
2017-10-07T09:49:52.032Z,94.0
2017-10-07T09:50:53.644Z,94.8
2017-10-07T09:51:55.261Z,93.7
2017-10-07T09:52:56.871Z,94.5
2017-10-07T09:53:58.496Z,94.7
2017-10-07T09:55:00.104Z,94.7
2017-10-07T09:56:01.730Z,94.5
2017-10-07T09:57:03.348Z,93.7
2017-10-07T09:58:04.961Z,95.6
2017-10-07T09:59:06.576Z,94.7
2017-10-07T10:00:08.193Z,94.5
2017-10-07T10:01:09.811Z,93.5
2017-10-07T10:02:11.425Z,94.1
2017-10-07T10:03:13.045Z,95.3
2017-10-07T10:04:14.654Z,94.8
2017-10-07T10:05:16.274Z,92.5
2017-10-07T10:06:17.888Z,94.5
2017-10-07T10:07:19.497Z,95.3
2017-10-07T10:08:21.113Z,94.9
2017-10-07T10:09:22.743Z,94.9
2017-10-07T10:10:24.362Z,94.7
2017-10-07T10:11:25.974Z,94.8
2017-10-07T10:12:27.581Z,94.5
2017-10-07T10:13:29.195Z,93.4
2017-10-07T10:14:30.823Z,96.0
2017-10-07T10:15:32.439Z,94.2
2017-10-07T10:16:34.055Z,95.2
2017-10-07T10:17:35.667Z,95.1
2017-10-07T10:18:37.287Z,94.6
2017-10-07T10:19:38.901Z,95.8
2017-10-07T10:20:40.514Z,94.8
2017-10-07T10:21:42.125Z,94.9
2017-10-07T10:22:43.739Z,95.6
2017-10-07T10:23:45.362Z,96.0
2017-10-07T10:24:46.978Z,94.5
2017-10-07T10:25:48.588Z,94.8
2017-10-07T10:26:50.197Z,95.2
2017-10-07T10:27:51.818Z,94.5
2017-10-07T10:28:53.433Z,95.3
2017-10-07T10:29:55.048Z,95.6
2017-10-07T10:30:56.665Z,94.7
2017-10-07T10:31:58.278Z,95.0
2017-10-07T10:32:59.888Z,94.4
2017-10-07T10:34:01.503Z,94.5
2017-10-07T10:35:03.114Z,94.9
2017-10-07T10:36:04.725Z,94.6
2017-10-07T10:37:06.344Z,93.3
2017-10-07T10:38:07.955Z,95.4
2017-10-07T10:39:09.569Z,95.2
2017-10-07T10:40:11.185Z,95.6
2017-10-07T10:41:12.793Z,94.7
2017-10-07T10:42:14.409Z,95.7
2017-10-07T10:43:16.020Z,94.6
2017-10-07T10:44:17.637Z,94.6
2017-10-07T10:45:19.250Z,93.9
2017-10-07T10:46:20.868Z,95.0
2017-10-07T10:47:22.481Z,94.3
2017-10-07T10:48:24.094Z,94.9
2017-10-07T10:49:25.703Z,94.7
2017-10-07T10:50:27.315Z,94.2
2017-10-07T10:51:28.932Z,95.2
2017-10-07T10:52:30.543Z,94.6
2017-10-07T10:53:32.161Z,94.8
2017-10-07T10:54:33.771Z,94.2
2017-10-07T10:55:35.385Z,94.2
2017-10-07T10:56:36.995Z,95.1
2017-10-07T10:57:38.614Z,93.5
2017-10-07T10:58:40.225Z,95.0
2017-10-07T10:59:41.840Z,93.3
2017-10-07T11:00:43.451Z,93.1
2017-10-07T11:01:45.063Z,92.8
2017-10-07T11:02:46.678Z,93.6
2017-10-07T11:03:48.288Z,94.9
2017-10-07T11:04:49.901Z,93.4
2017-10-07T11:05:51.512Z,92.4
2017-10-07T11:06:53.125Z,91.3
2017-10-07T11:07:54.736Z,89.3
2017-10-07T11:08:56.351Z,89.8
2017-10-07T11:09:57.959Z,88.7
2017-10-07T11:10:59.579Z,87.3
2017-10-07T11:12:01.193Z,85.9
2017-10-07T11:13:02.805Z,84.3
2017-10-07T11:14:04.417Z,84.2
2017-10-07T11:15:06.034Z,85.9
2017-10-07T11:16:07.647Z,84.2
2017-10-07T11:17:09.258Z,85.3
2017-10-07T11:18:10.874Z,82.1
2017-10-07T11:19:12.488Z,85.5
2017-10-07T11:20:14.096Z,82.4
2017-10-07T11:21:15.714Z,85.4
2017-10-07T11:22:17.325Z,81.1
2017-10-07T11:23:18.939Z,81.8
2017-10-07T11:24:20.554Z,82.8
2017-10-07T11:25:22.169Z,79.6
2017-10-07T11:26:23.781Z,81.3
2017-10-07T11:27:25.393Z,81.3
2017-10-07T11:28:27.003Z,79.0
2017-10-07T11:29:28.620Z,80.3
2017-10-07T11:30:30.230Z,80.6
2017-10-07T11:31:31.839Z,77.7
2017-10-07T11:32:33.454Z,76.1
2017-10-07T11:33:35.068Z,76.6
2017-10-07T11:34:36.680Z,77.0
2017-10-07T11:35:38.288Z,76.9
2017-10-07T11:36:39.902Z,76.9
2017-10-07T11:37:41.514Z,77.8
2017-10-07T11:38:43.130Z,77.7
2017-10-07T11:39:44.740Z,75.9
2017-10-07T11:40:46.354Z,73.1
2017-10-07T11:41:47.969Z,72.3
2017-10-07T11:42:49.586Z,72.1
2017-10-07T11:43:51.193Z,73.2
2017-10-07T11:44:52.810Z,71.9
2017-10-07T11:45:54.418Z,72.8
2017-10-07T11:46:56.035Z,72.6
2017-10-07T11:47:57.687Z,71.1
2017-10-07T11:48:59.307Z,70.2
2017-10-07T11:50:00.915Z,70.5
2017-10-07T11:51:02.533Z,69.4
2017-10-07T11:52:04.139Z,69.0
2017-10-07T11:53:05.753Z,67.5
2017-10-07T11:54:07.384Z,70.7
2017-10-07T11:55:08.983Z,68.4
2017-10-07T11:56:10.591Z,68.8
2017-10-07T11:57:12.207Z,68.7
2017-10-07T11:58:13.821Z,67.8
2017-10-07T11:59:15.427Z,69.4
2017-10-07T12:00:17.045Z,67.5
2017-10-07T12:01:18.651Z,66.5
2017-10-07T12:02:20.270Z,67.1
2017-10-07T12:03:21.880Z,66.5
2017-10-07T12:04:23.499Z,64.8
2017-10-07T12:05:25.108Z,64.6
2017-10-07T12:06:26.721Z,65.1
2017-10-07T12:07:28.327Z,65.0
2017-10-07T12:08:29.942Z,64.9
2017-10-07T12:09:31.559Z,64.3
2017-10-07T12:10:33.169Z,63.2
2017-10-07T12:11:34.776Z,62.4
2017-10-07T12:12:36.392Z,61.9
2017-10-07T12:13:38.001Z,62.3
2017-10-07T12:14:39.614Z,60.7
2017-10-07T12:15:41.226Z,64.0
2017-10-07T12:16:42.838Z,62.8
2017-10-07T12:17:44.452Z,63.7
2017-10-07T12:18:46.062Z,62.1
2017-10-07T12:19:47.672Z,62.7
2017-10-07T12:20:49.288Z,61.6
2017-10-07T12:21:50.899Z,61.5
2017-10-07T12:22:52.514Z,63.1
2017-10-07T12:23:54.117Z,63.5
2017-10-07T12:24:55.732Z,61.4
2017-10-07T12:25:57.347Z,61.9
2017-10-07T12:26:58.959Z,60.9
2017-10-07T12:28:00.567Z,61.4
2017-10-07T12:29:02.181Z,60.5
2017-10-07T12:30:03.794Z,60.4
2017-10-07T12:31:05.402Z,62.0
2017-10-07T12:32:07.018Z,61.3
2017-10-07T12:33:08.628Z,61.4
2017-10-07T12:34:10.241Z,60.1
2017-10-07T12:35:11.854Z,61.2
2017-10-07T12:36:13.467Z,60.3
2017-10-07T12:37:15.074Z,60.3
2017-10-07T12:38:16.694Z,61.0
2017-10-07T12:39:18.298Z,60.2
2017-10-07T12:40:19.915Z,61.1
2017-10-07T12:41:21.523Z,62.5
2017-10-07T12:42:23.132Z,61.5
2017-10-07T12:43:24.747Z,60.5
2017-10-07T12:44:26.359Z,61.4
2017-10-07T12:45:27.969Z,61.2
2017-10-07T12:46:29.580Z,60.3
2017-10-07T12:47:31.201Z,61.9
2017-10-07T12:48:32.815Z,63.1
2017-10-07T12:49:34.423Z,61.4
2017-10-07T12:50:36.038Z,61.8
2017-10-07T12:51:37.643Z,63.3
2017-10-07T12:52:39.260Z,61.1
2017-10-07T12:53:40.868Z,61.5
2017-10-07T12:54:42.485Z,61.9
2017-10-07T12:55:44.097Z,61.7
2017-10-07T12:56:45.705Z,61.7
2017-10-07T12:57:47.322Z,61.4
2017-10-07T12:58:48.934Z,61.3
2017-10-07T12:59:50.541Z,61.5
2017-10-07T13:00:52.154Z,61.4
2017-10-07T13:01:53.769Z,61.0
2017-10-07T13:02:55.385Z,62.3
2017-10-07T13:03:56.991Z,61.2
2017-10-07T13:04:58.603Z,60.7
2017-10-07T13:06:00.216Z,60.5
2017-10-07T13:07:01.824Z,61.1
2017-10-07T13:08:03.439Z,59.8
2017-10-07T13:09:05.050Z,59.6
2017-10-07T13:10:06.667Z,59.4
2017-10-07T13:11:08.271Z,59.3
2017-10-07T13:12:09.886Z,60.2
2017-10-07T13:13:11.497Z,58.9
2017-10-07T13:14:13.104Z,60.4
2017-10-07T13:15:14.722Z,59.4
2017-10-07T13:16:16.333Z,59.5
2017-10-07T13:17:17.951Z,60.5
2017-10-07T13:18:19.559Z,58.9
2017-10-07T13:19:21.176Z,60.2
2017-10-07T13:20:22.782Z,59.5
2017-10-07T13:21:24.390Z,59.9
2017-10-07T13:22:26.007Z,59.1
2017-10-07T13:23:27.622Z,59.9
2017-10-07T13:24:29.229Z,60.3
2017-10-07T13:25:30.844Z,59.4
2017-10-07T13:26:32.458Z,59.6
2017-10-07T13:27:34.066Z,58.7
2017-10-07T13:28:35.671Z,58.7
2017-10-07T13:29:37.284Z,58.3
2017-10-07T13:30:38.900Z,58.5
2017-10-07T13:31:40.509Z,58.1
2017-10-07T13:32:42.125Z,58.5
2017-10-07T13:33:43.733Z,60.1
2017-10-07T13:34:45.345Z,59.0
2017-10-07T13:35:46.973Z,60.5
2017-10-07T13:36:48.568Z,58.8
2017-10-07T13:37:50.186Z,58.3
2017-10-07T13:38:51.793Z,58.5
2017-10-07T13:39:53.400Z,58.2